메인 페이지
METAR-TAF:

METAR-TAF

공항 :

상조제두스캄푸스, 상파울루, 브라질

위도: 23-14S, 경도: 045-52W, 고도: 646m

현재 날씨관측

예보는 54분 전, 22:00시(UTC)에 발표되었습니다.
7kt남남동풍과 남서풍을 오가는
온도 20°C
습도 78%
기압 1016 hPa
시정: 8000m

METAR: SBSJ 182200Z 18007KT 150V220 8000 NSC 20/16 Q1016

시각: 19:54 (22:54 UTC)

예보

예보는 6 시간 34분 전, 16:20시(UTC)에 발표되었습니다.
예보 대상 시간: 18일 18시부터 19일 06시까지 (UTC)
남남서4kt
시정 10km 이상
1500m 미만 상공 구름 및 적란운 없음
전환 중
18일 19시부터 18일 21시까지 (UTC)
4kt
전환 중
19일 01시부터 19일 03시까지 (UTC)
동남동4kt
시정: 6000m

TAF: SBSJ 181620Z 1818/1906 21004KT CAVOK TX32/1818Z TN18/1905Z BECMG 1819/1821 18004KT BECMG 1901/1903 11004KT 6000 RMK PGL

4,000개 이상의 공항 관측 자료 및 예보 (METAR 및 TAF 보고).

지도상에서 검색 가능한 기상관측소가 노란 점과 빨간 점으로 표시되어 있습니다.

기상관측소 명을 보려면 표시 위로 마우스를 이동하세요.

날씨 관측과 예보를 보려면 클릭하세요.

지도 변경 : 확대하려면 엑스 표시가 있는 녹색 버튼, 축소하려면 빼기 표시가 있는 녹색 버튼, 다음 페이지의 지도를 보려면 녹색 화살표를 클릭하세요.


METAR-TAF: